Time;durP1;ratioP1;P1;durP2;ratioP2;P2;SDS_P1;SDS_P2;PMS_P1;PMS_P2;Temp;Humidity;BMP_temperature;BMP_pressure;BME280_temperature;BME280_humidity;BME280_pressure;Samples;Min_cycle;Max_cycle;Signal;HPM_P1;HPM_P2
2023/07/08 00:00:41;;;;;;;103.47;98.03;;;21.80;99.90;;;;;;5098458;28;20196;-58
2023/07/08 00:03:07;;;;;;;117.40;111.30;;;21.80;99.90;;;;;;5099434;28;20164;-59
2023/07/08 00:05:33;;;;;;;147.03;139.63;;;21.70;99.90;;;;;;5098755;28;20164;-58
2023/07/08 00:07:59;;;;;;;156.17;148.30;;;21.70;99.90;;;;;;5098416;28;20168;-57
2023/07/08 00:10:27;;;;;;;153.97;146.17;;;21.60;99.90;;;;;;5098179;28;20500;-57
2023/07/08 00:12:55;;;;;;;166.70;158.33;;;21.60;99.90;;;;;;5098910;28;20271;-57
2023/07/08 00:15:25;;;;;;;189.13;179.83;;;21.60;99.90;;;;;;5099974;28;20176;-58
2023/07/08 00:17:50;;;;;;;179.27;170.13;;;21.50;99.90;;;;;;5083821;28;20208;-57
2023/07/08 00:20:58;;;;;;;176.43;167.70;;;21.40;99.90;;;;;;5100429;28;20537;-58
2023/07/08 00:23:24;;;;;;;177.67;169.03;;;21.40;99.90;;;;;;5100409;28;20172;-59
2023/07/08 00:25:50;;;;;;;171.87;163.30;;;21.30;99.90;;;;;;5100557;28;20187;-58
2023/07/08 00:28:22;;;;;;;155.93;148.13;;;21.30;99.90;;;;;;5099730;28;20168;-58
2023/07/08 00:30:48;;;;;;;148.63;141.23;;;21.30;99.90;;;;;;5100495;28;20183;-57
2023/07/08 00:33:14;;;;;;;131.53;124.90;;;21.20;99.90;;;;;;5100330;28;20224;-57
2023/07/08 00:35:44;;;;;;;114.87;108.87;;;21.10;99.90;;;;;;5100229;28;20175;-57
2023/07/08 00:38:15;;;;;;;96.40;91.50;;;21.00;99.90;;;;;;5100551;28;20159;-59
2023/07/08 00:40:57;;;;;;;58.57;55.33;;;21.00;99.90;;;;;;5099289;28;20302;-59
2023/07/08 00:43:35;;;;;;;42.20;40.00;;;20.90;99.90;;;;;;5099552;28;20629;-56
2023/07/08 00:46:21;;;;;;;19.90;18.53;;;20.80;99.90;;;;;;5083968;28;20482;-57
2023/07/08 00:48:48;;;;;;;5.83;5.13;;;20.80;99.90;;;;;;5099150;28;20427;-59
2023/07/08 00:51:14;;;;;;;9.30;8.30;;;20.70;99.90;;;;;;5098836;28;20179;-60
2023/07/08 00:53:40;;;;;;;7.93;7.07;;;20.80;99.90;;;;;;5082388;28;20207;-59
2023/07/08 00:56:16;;;;;;;9.67;8.67;;;20.70;99.90;;;;;;5098844;28;20544;-56
2023/07/08 00:58:55;;;;;;;11.00;10.10;;;20.80;99.90;;;;;;5098865;28;20160;-57
2023/07/08 01:01:22;;;;;;;10.77;9.97;;;20.70;99.90;;;;;;5098322;28;20210;-54
2023/07/08 01:03:50;;;;;;;12.10;11.40;;;20.70;99.90;;;;;;5097368;28;20221;-54
2023/07/08 01:06:21;;;;;;;14.23;13.33;;;20.70;99.90;;;;;;5094993;28;20225;-57
2023/07/08 01:08:53;;;;;;;14.53;13.53;;;20.70;99.90;;;;;;5097111;28;20406;-55
2023/07/08 01:11:21;;;;;;;12.87;11.90;;;20.60;99.90;;;;;;5096864;28;20168;-59
2023/07/08 01:13:50;;;;;;;12.63;11.80;;;20.50;99.90;;;;;;5096045;28;20556;-57
2023/07/08 01:16:16;;;;;;;12.67;11.73;;;20.60;99.90;;;;;;5096545;28;20183;-57
2023/07/08 01:18:42;;;;;;;16.43;15.27;;;20.40;99.90;;;;;;5094641;28;20168;-57
2023/07/08 01:21:36;;;;;;;19.63;18.13;;;20.40;99.90;;;;;;5096384;28;20208;-56
2023/07/08 01:24:05;;;;;;;17.67;16.57;;;20.20;99.90;;;;;;5096195;28;20180;-57
2023/07/08 01:26:33;;;;;;;21.17;19.97;;;20.30;99.90;;;;;;5096160;28;20176;-54
2023/07/08 01:28:59;;;;;;;16.30;15.30;;;20.20;99.90;;;;;;5096289;28;20541;-58
2023/07/08 01:31:29;;;;;;;18.47;17.37;;;20.10;99.90;;;;;;5096624;28;20168;-57
2023/07/08 01:33:55;;;;;;;17.80;16.70;;;20.00;99.90;;;;;;5076748;28;20276;-56
2023/07/08 01:36:21;;;;;;;15.30;14.27;;;20.00;99.90;;;;;;5076754;28;20553;-58
2023/07/08 01:38:47;;;;;;;13.37;12.53;;;20.00;99.90;;;;;;5076715;28;20173;-56
2023/07/08 01:41:15;;;;;;;7.83;7.07;;;20.00;99.90;;;;;;5078290;28;20543;-57
2023/07/08 01:43:44;;;;;;;6.67;6.07;;;20.00;99.90;;;;;;5076754;28;20169;-57
2023/07/08 01:46:17;;;;;;;6.97;6.47;;;20.00;99.90;;;;;;5076974;28;20524;-56
2023/07/08 01:48:56;;;;;;;8.33;7.23;;;19.90;99.90;;;;;;5077432;28;20277;-58
2023/07/08 01:51:23;;;;;;;8.07;7.30;;;19.80;99.90;;;;;;5077610;28;20165;-53
2023/07/08 01:53:52;;;;;;;11.13;10.30;;;19.80;99.90;;;;;;5077004;28;20199;-58
2023/07/08 01:56:18;;;;;;;14.27;13.07;;;19.70;99.90;;;;;;5077328;28;20176;-57
2023/07/08 01:58:50;;;;;;;12.83;12.03;;;19.70;99.90;;;;;;5077082;28;20172;-57
2023/07/08 02:01:16;;;;;;;10.67;9.87;;;19.80;99.90;;;;;;5076761;28;20193;-57
2023/07/08 02:03:41;;;;;;;8.03;7.33;;;19.60;99.90;;;;;;5077101;28;20168;-56
2023/07/08 02:06:08;;;;;;;8.20;7.43;;;19.50;99.90;;;;;;5076969;28;20169;-58
2023/07/08 02:08:34;;;;;;;7.03;6.43;;;19.60;99.90;;;;;;5077449;28;20271;-58
2023/07/08 02:10:59;;;;;;;9.80;9.00;;;19.60;99.90;;;;;;5077251;28;20329;-59
2023/07/08 02:13:25;;;;;;;12.57;11.67;;;19.50;99.90;;;;;;5076735;28;20230;-58
2023/07/08 02:15:51;;;;;;;14.53;13.53;;;19.50;99.90;;;;;;5077419;28;20260;-58
2023/07/08 02:18:18;;;;;;;13.23;12.30;;;19.50;99.90;;;;;;5076380;28;20200;-57
2023/07/08 02:20:44;;;;;;;12.47;11.37;;;19.30;99.90;;;;;;5076292;28;20203;-57
2023/07/08 02:23:10;;;;;;;18.47;16.90;;;19.30;99.90;;;;;;5075926;28;20267;-56
2023/07/08 02:25:36;;;;;;;17.80;16.77;;;19.30;99.90;;;;;;5076989;28;20427;-58
2023/07/08 02:28:02;;;;;;;15.63;14.67;;;19.10;99.90;;;;;;5077082;28;20165;-54
2023/07/08 02:30:28;;;;;;;13.20;12.17;;;19.10;99.90;;;;;;5076647;28;20173;-58
2023/07/08 02:32:56;;;;;;;11.37;10.47;;;19.10;99.90;;;;;;5088279;28;20249;-59
2023/07/08 02:35:27;;;;;;;9.47;8.67;;;19.10;99.90;;;;;;5097149;28;20179;-56
2023/07/08 02:37:54;;;;;;;6.97;6.40;;;19.10;99.90;;;;;;5098036;28;20630;-58
2023/07/08 02:40:21;;;;;;;6.43;5.87;;;19.10;99.90;;;;;;5096938;28;20196;-57
2023/07/08 02:42:54;;;;;;;6.33;5.77;;;19.00;99.90;;;;;;5096831;28;20225;-58
2023/07/08 02:45:19;;;;;;;6.63;5.90;;;19.00;99.90;;;;;;5095500;28;20195;-58
2023/07/08 02:47:45;;;;;;;9.07;6.67;;;19.00;99.90;;;;;;5095066;28;20187;-58
2023/07/08 02:50:20;;;;;;;7.83;6.27;;;18.90;99.90;;;;;;5095384;28;20548;-58
2023/07/08 02:52:45;;;;;;;7.53;5.73;;;18.90;99.90;;;;;;5096244;28;20179;-59
2023/07/08 02:55:11;;;;;;;15.53;6.13;;;18.80;99.90;;;;;;5094978;28;20229;-59
2023/07/08 02:57:38;;;;;;;9.00;6.80;;;18.80;99.90;;;;;;5093014;28;20172;-57
2023/07/08 03:00:37;;;;;;;7.17;6.47;;;18.90;99.90;;;;;;5095315;28;20250;-56
2023/07/08 03:03:04;;;;;;;9.90;8.90;;;18.80;99.90;;;;;;5097483;28;20246;-58
2023/07/08 03:05:30;;;;;;;11.17;10.23;;;18.80;99.90;;;;;;5095785;28;20190;-52
2023/07/08 03:11:18;;;;;;;12.07;11.17;;;18.70;99.90;;;;;;5096857;28;20442;-58
2023/07/08 03:13:43;;;;;;;9.13;8.53;;;18.70;99.90;;;;;;5096458;28;20163;-57
2023/07/08 03:16:25;;;;;;;11.57;10.50;;;18.60;99.90;;;;;;5094773;28;20175;-58
2023/07/08 03:18:51;;;;;;;11.57;10.10;;;18.60;99.90;;;;;;5096037;28;20172;-58
2023/07/08 03:21:17;;;;;;;13.07;11.97;;;18.60;99.90;;;;;;5096246;28;20754;-56
2023/07/08 03:23:43;;;;;;;11.17;10.37;;;18.50;99.90;;;;;;5096936;28;20267;-56
2023/07/08 03:26:18;;;;;;;9.70;9.00;;;18.60;99.90;;;;;;5097869;28;20581;-57
2023/07/08 03:28:44;;;;;;;9.47;8.63;;;18.50;99.90;;;;;;5097025;28;20167;-56
2023/07/08 03:31:13;;;;;;;8.97;7.37;;;18.50;99.90;;;;;;5097004;28;20194;-54
2023/07/08 03:33:42;;;;;;;6.73;5.37;;;18.40;99.90;;;;;;5097849;28;20720;-55
2023/07/08 03:36:22;;;;;;;8.53;6.33;;;18.40;99.90;;;;;;5096526;28;20279;-58
2023/07/08 03:38:58;;;;;;;7.20;6.53;;;18.40;99.90;;;;;;5096896;28;20167;-56
2023/07/08 03:41:24;;;;;;;6.00;5.40;;;18.40;99.90;;;;;;5096367;28;20285;-58
2023/07/08 03:43:52;;;;;;;6.33;4.97;;;18.40;99.90;;;;;;5095851;28;20175;-58
2023/07/08 03:46:20;;;;;;;4.87;4.40;;;18.40;99.90;;;;;;5096641;28;20165;-56
2023/07/08 03:48:47;;;;;;;5.23;4.80;;;18.40;99.90;;;;;;5095633;28;20713;-58
2023/07/08 03:51:22;;;;;;;6.50;4.97;;;18.40;99.90;;;;;;5096231;28;20176;-54
2023/07/08 03:53:48;;;;;;;9.13;5.07;;;18.30;99.90;;;;;;5096632;28;20613;-56
2023/07/08 03:56:14;;;;;;;7.10;4.47;;;18.30;99.90;;;;;;5096163;28;20296;-55
2023/07/08 03:58:39;;;;;;;5.60;5.07;;;18.30;99.90;;;;;;5095352;28;20210;-56
2023/07/08 04:01:17;;;;;;;6.00;4.60;;;18.20;99.90;;;;;;5095030;28;20262;-55
2023/07/08 04:03:43;;;;;;;6.53;4.50;;;18.20;99.90;;;;;;5096098;28;20168;-58
2023/07/08 04:06:09;;;;;;;8.53;4.80;;;18.20;99.90;;;;;;5095805;28;20168;-56
2023/07/08 04:08:34;;;;;;;11.13;4.73;;;18.20;99.90;;;;;;5095775;28;20168;-58
2023/07/08 04:11:00;;;;;;;6.17;5.57;;;18.30;99.90;;;;;;5095806;28;20172;-58
2023/07/08 04:13:26;;;;;;;6.90;4.93;;;18.30;99.90;;;;;;5095384;28;20172;-58
2023/07/08 04:15:58;;;;;;;5.03;4.53;;;18.30;99.90;;;;;;5096604;28;20224;-57
2023/07/08 04:18:24;;;;;;;5.27;4.77;;;18.30;99.90;;;;;;5095804;28;20576;-55
2023/07/08 04:20:52;;;;;;;5.27;4.80;;;18.30;99.90;;;;;;5095807;28;20250;-56
2023/07/08 04:23:21;;;;;;;5.00;4.60;;;18.30;99.90;;;;;;5097427;28;20177;-56
2023/07/08 04:25:53;;;;;;;5.97;5.37;;;18.30;99.90;;;;;;5095993;28;20548;-57
2023/07/08 04:28:22;;;;;;;7.17;5.27;;;18.30;99.90;;;;;;5098174;28;20676;-58
2023/07/08 04:30:47;;;;;;;4.93;4.53;;;18.30;99.90;;;;;;5100351;28;20195;-58
2023/07/08 04:33:14;;;;;;;4.50;4.13;;;18.40;99.90;;;;;;5100680;28;20277;-57
2023/07/08 04:35:41;;;;;;;5.73;4.50;;;18.30;99.90;;;;;;5099686;28;20274;-58
2023/07/08 04:38:17;;;;;;;7.23;4.63;;;18.40;99.90;;;;;;5100540;28;20190;-56
2023/07/08 04:40:43;;;;;;;5.27;4.63;;;18.40;99.90;;;;;;5099351;28;20611;-57
2023/07/08 04:43:12;;;;;;;5.10;4.60;;;18.40;99.90;;;;;;5099869;28;20175;-55
2023/07/08 04:45:39;;;;;;;5.90;5.30;;;18.40;99.90;;;;;;5099468;28;20171;-58
2023/07/08 04:48:12;;;;;;;5.47;4.93;;;18.40;99.90;;;;;;5099695;28;20267;-58
2023/07/08 04:50:49;;;;;;;4.90;4.50;;;18.50;99.90;;;;;;5099258;28;20226;-57
2023/07/08 04:53:20;;;;;;;4.80;4.40;;;18.50;99.90;;;;;;5099845;28;20233;-56
2023/07/08 04:55:49;;;;;;;7.10;6.40;;;18.50;99.90;;;;;;5099697;28;20168;-57
2023/07/08 04:58:15;;;;;;;7.27;6.17;;;18.50;99.90;;;;;;5097908;28;20292;-58
2023/07/08 05:00:40;;;;;;;9.57;5.60;;;18.50;99.90;;;;;;5098253;28;20221;-56
2023/07/08 05:03:06;;;;;;;7.40;5.70;;;18.60;99.90;;;;;;5097772;28;20222;-57
2023/07/08 05:05:32;;;;;;;5.63;5.23;;;18.70;99.90;;;;;;5096973;28;20243;-57
2023/07/08 05:07:57;;;;;;;5.53;5.03;;;18.70;99.90;;;;;;5097297;28;20248;-58
2023/07/08 05:10:23;;;;;;;7.33;5.93;;;18.70;99.90;;;;;;5098063;28;20272;-59
2023/07/08 05:12:49;;;;;;;5.53;4.40;;;18.80;99.90;;;;;;5099047;28;20167;-58
2023/07/08 05:15:15;;;;;;;5.97;5.07;;;18.80;99.90;;;;;;5097430;28;20179;-57
2023/07/08 05:17:41;;;;;;;9.80;5.17;;;18.80;99.90;;;;;;5098297;28;20210;-53
2023/07/08 05:20:10;;;;;;;9.30;5.30;;;18.80;99.90;;;;;;5098197;28;20220;-58
2023/07/08 05:22:36;;;;;;;5.23;4.47;;;18.90;99.90;;;;;;5098437;28;20417;-59
2023/07/08 05:25:03;;;;;;;5.33;4.87;;;18.90;99.90;;;;;;5098276;28;20168;-58
2023/07/08 05:27:47;;;;;;;10.80;5.50;;;18.90;99.90;;;;;;5098604;28;20203;-59
2023/07/08 05:30:24;;;;;;;5.63;5.03;;;18.90;99.90;;;;;;5098743;28;20275;-55
2023/07/08 05:32:50;;;;;;;5.00;4.60;;;19.00;99.90;;;;;;5097909;28;20239;-60
2023/07/08 05:35:15;;;;;;;5.97;4.73;;;19.00;99.90;;;;;;5098325;28;20233;-56
2023/07/08 05:37:44;;;;;;;4.50;4.10;;;19.00;99.90;;;;;;5098304;28;20488;-56
2023/07/08 05:40:10;;;;;;;6.67;4.57;;;19.10;99.90;;;;;;5096316;28;20640;-59
2023/07/08 05:42:35;;;;;;;5.07;4.60;;;19.10;99.90;;;;;;5097612;28;20741;-58
2023/07/08 05:45:10;;;;;;;4.03;3.63;;;19.10;99.90;;;;;;5096716;28;20171;-58
2023/07/08 05:47:36;;;;;;;4.77;4.37;;;19.10;99.90;;;;;;5097521;28;20175;-56
2023/07/08 05:50:02;;;;;;;4.40;4.10;;;19.20;99.90;;;;;;5097100;28;20175;-57
2023/07/08 05:52:27;;;;;;;5.30;4.27;;;19.30;99.90;;;;;;5097113;28;20179;-58
2023/07/08 05:54:53;;;;;;;5.03;4.33;;;19.30;99.90;;;;;;5097812;28;20479;-58
2023/07/08 05:57:18;;;;;;;6.00;5.47;;;19.30;99.90;;;;;;5097553;28;20271;-57
2023/07/08 05:59:44;;;;;;;5.93;5.50;;;19.30;99.90;;;;;;5097291;28;20196;-59
2023/07/08 06:02:25;;;;;;;5.83;5.33;;;19.30;99.90;;;;;;5096952;28;20167;-59
2023/07/08 06:04:51;;;;;;;4.83;4.53;;;19.30;99.90;;;;;;5098309;28;20164;-57
2023/07/08 06:07:16;;;;;;;7.10;5.27;;;19.40;99.90;;;;;;5097234;28;20171;-58
2023/07/08 06:09:42;;;;;;;5.70;5.20;;;19.30;99.90;;;;;;5097773;28;20222;-59
2023/07/08 06:12:08;;;;;;;5.50;5.00;;;19.40;99.90;;;;;;5097967;28;20157;-56
2023/07/08 06:14:33;;;;;;;6.93;5.90;;;19.40;99.90;;;;;;5097845;28;20206;-59
2023/07/08 06:16:59;;;;;;;6.20;5.70;;;19.40;99.90;;;;;;5097669;28;20259;-59
2023/07/08 06:19:24;;;;;;;7.40;6.93;;;19.40;99.90;;;;;;5095854;28;20172;-58
2023/07/08 06:21:50;;;;;;;6.23;5.83;;;19.40;99.90;;;;;;5097081;28;20156;-57
2023/07/08 06:24:16;;;;;;;7.57;6.47;;;19.50;99.90;;;;;;5096198;28;20164;-56
2023/07/08 06:26:42;;;;;;;7.73;6.97;;;19.50;99.90;;;;;;5096252;28;20548;-59
2023/07/08 06:29:13;;;;;;;7.60;7.00;;;19.50;99.90;;;;;;5096075;28;20195;-59
2023/07/08 06:31:38;;;;;;;7.80;7.10;;;19.50;99.90;;;;;;5096193;28;20165;-59
2023/07/08 06:34:04;;;;;;;7.53;6.83;;;19.50;99.90;;;;;;5095366;28;20291;-57
2023/07/08 06:36:30;;;;;;;8.53;7.93;;;19.50;99.90;;;;;;5094571;28;20266;-57
2023/07/08 06:38:56;;;;;;;8.50;7.53;;;19.60;99.90;;;;;;5094586;28;20211;-58
2023/07/08 06:41:21;;;;;;;8.27;7.67;;;19.60;99.90;;;;;;5093816;28;20227;-56
2023/07/08 06:43:47;;;;;;;8.30;7.80;;;19.60;99.90;;;;;;5091728;28;20590;-56
2023/07/08 06:46:13;;;;;;;8.97;8.27;;;19.60;99.90;;;;;;5092285;28;20229;-55
2023/07/08 06:48:39;;;;;;;9.30;8.70;;;19.60;99.90;;;;;;5092653;28;20203;-58
2023/07/08 06:51:04;;;;;;;8.97;8.30;;;19.60;99.90;;;;;;5094130;28;20225;-58
2023/07/08 06:53:30;;;;;;;8.30;7.73;;;19.70;99.90;;;;;;5095772;28;20190;-57
2023/07/08 06:55:55;;;;;;;8.33;7.83;;;19.70;99.90;;;;;;5095385;28;20211;-56
2023/07/08 06:58:21;;;;;;;9.47;8.87;;;19.70;99.90;;;;;;5094892;28;20317;-56
2023/07/08 07:00:46;;;;;;;9.57;8.97;;;19.70;99.90;;;;;;5095897;28;20292;-58
2023/07/08 07:03:12;;;;;;;9.97;8.97;;;19.80;99.90;;;;;;5095514;28;20180;-58
2023/07/08 07:05:38;;;;;;;8.70;8.10;;;19.80;99.90;;;;;;5095294;28;20168;-57
2023/07/08 07:08:05;;;;;;;9.00;8.47;;;19.80;99.90;;;;;;5095674;28;20168;-57
2023/07/08 07:10:30;;;;;;;9.43;8.63;;;19.90;99.90;;;;;;5096462;28;20182;-57
2023/07/08 07:12:56;;;;;;;9.47;8.87;;;19.90;99.90;;;;;;5094582;28;20172;-58
2023/07/08 07:15:22;;;;;;;9.23;8.63;;;19.90;99.90;;;;;;5095866;28;20183;-58
2023/07/08 07:17:47;;;;;;;9.37;8.77;;;19.90;99.90;;;;;;5096151;28;20176;-57
2023/07/08 07:20:13;;;;;;;8.73;8.23;;;19.90;99.90;;;;;;5093359;28;20203;-58
2023/07/08 07:22:39;;;;;;;9.97;9.23;;;19.90;99.90;;;;;;5094545;28;20160;-54
2023/07/08 07:25:05;;;;;;;8.90;8.23;;;20.00;99.90;;;;;;5094966;28;20672;-54
2023/07/08 07:27:31;;;;;;;8.80;8.17;;;20.00;99.90;;;;;;5095924;28;20775;-60
2023/07/08 07:29:59;;;;;;;10.13;9.10;;;20.00;99.90;;;;;;5094527;28;20168;-57
2023/07/08 07:32:25;;;;;;;9.47;8.67;;;20.10;99.90;;;;;;5093893;28;20521;-53
2023/07/08 07:34:51;;;;;;;9.17;8.57;;;20.10;99.90;;;;;;5093572;28;20548;-57
2023/07/08 07:37:19;;;;;;;9.73;8.80;;;20.10;99.90;;;;;;5094815;28;20172;-57
2023/07/08 07:39:45;;;;;;;9.03;8.33;;;20.10;99.90;;;;;;5095348;28;20277;-56
2023/07/08 07:42:13;;;;;;;8.30;7.80;;;20.20;99.90;;;;;;5093795;28;20160;-56
2023/07/08 07:44:39;;;;;;;9.70;8.87;;;20.20;99.90;;;;;;5093800;28;20708;-57
2023/07/08 07:47:09;;;;;;;11.97;10.97;;;20.20;99.90;;;;;;5092953;28;20612;-57
2023/07/08 07:49:38;;;;;;;9.80;9.10;;;20.20;99.90;;;;;;5093959;28;20172;-58
2023/07/08 07:52:05;;;;;;;9.77;9.10;;;20.30;99.90;;;;;;5092568;28;20164;-56
2023/07/08 07:54:31;;;;;;;10.37;9.67;;;20.30;99.90;;;;;;5094215;28;20160;-59
2023/07/08 07:56:56;;;;;;;9.70;9.10;;;20.40;99.90;;;;;;5093241;28;20366;-57
2023/07/08 07:59:22;;;;;;;10.03;9.27;;;20.40;99.90;;;;;;5090270;28;20164;-56
2023/07/08 08:01:48;;;;;;;9.20;8.70;;;20.40;99.90;;;;;;5090824;28;20165;-54
2023/07/08 08:04:13;;;;;;;9.43;8.83;;;20.40;99.90;;;;;;5093128;28;20171;-55
2023/07/08 08:06:39;;;;;;;10.90;10.20;;;20.50;99.90;;;;;;5092589;28;20165;-57
2023/07/08 08:09:06;;;;;;;10.93;10.20;;;20.50;99.90;;;;;;5091788;28;20263;-58
2023/07/08 08:11:34;;;;;;;9.50;8.90;;;20.50;99.90;;;;;;5090726;28;20442;-56
2023/07/08 08:14:01;;;;;;;9.77;9.17;;;20.60;99.90;;;;;;5090278;28;20535;-57
2023/07/08 08:16:26;;;;;;;9.00;8.50;;;20.60;99.90;;;;;;5091124;28;20172;-58
2023/07/08 08:18:52;;;;;;;10.00;9.40;;;20.60;99.90;;;;;;5093559;28;20244;-57
2023/07/08 08:21:21;;;;;;;8.83;8.23;;;20.70;99.90;;;;;;5096534;28;20563;-56
2023/07/08 08:23:50;;;;;;;8.77;7.67;;;20.70;99.90;;;;;;5097050;28;20176;-56
2023/07/08 08:26:16;;;;;;;8.97;8.37;;;20.80;99.90;;;;;;5096463;28;20245;-58
2023/07/08 08:28:42;;;;;;;8.57;8.00;;;20.80;99.90;;;;;;5094330;28;20184;-59
2023/07/08 08:31:07;;;;;;;8.70;8.20;;;20.80;99.90;;;;;;5094085;28;20689;-59
2023/07/08 08:33:33;;;;;;;8.33;7.83;;;20.90;99.90;;;;;;5093330;28;20224;-58
2023/07/08 08:35:58;;;;;;;8.40;7.70;;;20.90;99.90;;;;;;5093609;28;20176;-59
2023/07/08 08:38:24;;;;;;;8.97;8.47;;;21.00;99.90;;;;;;5094524;28;20160;-58
2023/07/08 08:40:49;;;;;;;9.93;9.33;;;21.00;99.90;;;;;;5094213;28;20207;-58
2023/07/08 08:43:23;;;;;;;11.70;11.03;;;21.10;99.90;;;;;;5095504;28;20165;-59
2023/07/08 08:46:14;;;;;;;11.23;10.53;;;21.10;99.90;;;;;;5097002;28;20522;-53
2023/07/08 08:48:53;;;;;;;11.70;10.80;;;21.10;99.90;;;;;;5098589;28;20650;-55
2023/07/08 08:51:21;;;;;;;10.87;10.07;;;21.20;99.90;;;;;;5097852;28;20285;-54
2023/07/08 08:53:48;;;;;;;10.87;10.17;;;21.20;99.90;;;;;;5097496;28;20176;-52
2023/07/08 08:56:20;;;;;;;10.43;9.50;;;21.20;99.90;;;;;;5097985;28;20177;-53
2023/07/08 08:59:12;;;;;;;10.00;9.43;;;21.30;99.90;;;;;;5081182;28;20161;-56
2023/07/08 09:01:39;;;;;;;9.93;9.43;;;21.30;99.90;;;;;;5097319;28;20229;-50
2023/07/08 09:04:26;;;;;;;9.57;8.90;;;21.40;99.90;;;;;;5097402;28;20179;-56
2023/07/08 09:07:04;;;;;;;11.30;10.67;;;21.40;99.90;;;;;;5099217;28;20552;-54
2023/07/08 09:09:42;;;;;;;10.47;9.60;;;21.50;99.90;;;;;;5081315;28;20182;-55
2023/07/08 09:12:16;;;;;;;11.17;10.53;;;21.50;99.90;;;;;;5096384;28;20168;-53
2023/07/08 09:14:43;;;;;;;13.03;12.00;;;21.50;99.90;;;;;;5096195;28;20160;-53
2023/07/08 09:17:22;;;;;;;13.53;12.53;;;21.60;99.90;;;;;;5097087;28;20180;-55
2023/07/08 09:20:18;;;;;;;12.70;12.00;;;21.60;99.90;;;;;;5096413;28;20195;-56
2023/07/08 09:22:46;;;;;;;16.03;14.73;;;21.70;99.90;;;;;;5096348;28;20234;-53
2023/07/08 09:25:15;;;;;;;11.67;10.97;;;21.70;99.90;;;;;;5097242;28;20559;-55
2023/07/08 09:27:41;;;;;;;11.60;11.00;;;21.80;99.90;;;;;;5095946;28;20259;-57
2023/07/08 09:30:13;;;;;;;10.73;10.13;;;21.80;99.90;;;;;;5096092;28;20175;-54
2023/07/08 09:32:40;;;;;;;9.70;8.73;;;21.90;99.90;;;;;;5096324;28;20576;-54
2023/07/08 09:35:09;;;;;;;7.37;6.80;;;21.90;99.90;;;;;;5096751;28;20255;-53
2023/07/08 09:37:38;;;;;;;9.93;9.33;;;22.00;99.90;;;;;;5095466;28;20283;-55
2023/07/08 09:40:30;;;;;;;7.23;6.73;;;22.00;99.90;;;;;;5095981;28;20200;-56
2023/07/08 09:43:15;;;;;;;5.50;5.10;;;22.10;99.90;;;;;;5094201;28;20478;-53
2023/07/08 09:45:44;;;;;;;4.87;3.80;;;22.10;99.90;;;;;;5093656;28;20177;-56
2023/07/08 09:48:21;;;;;;;3.30;3.10;;;22.20;99.90;;;;;;5093316;28;20259;-55
2023/07/08 09:50:48;;;;;;;4.93;4.53;;;22.20;99.90;;;;;;5093961;28;20707;-53
2023/07/08 09:53:15;;;;;;;5.50;4.10;;;22.30;99.90;;;;;;5093203;28;20473;-51
2023/07/08 09:55:42;;;;;;;4.17;3.57;;;22.30;99.90;;;;;;5093463;28;20673;-52
2023/07/08 09:58:18;;;;;;;4.83;3.10;;;22.40;99.90;;;;;;5095982;28;20248;-51
2023/07/08 10:00:51;;;;;;;3.43;3.13;;;22.40;99.90;;;;;;5095585;28;20210;-53
2023/07/08 10:03:33;;;;;;;3.87;3.57;;;22.50;99.90;;;;;;5096495;28;20164;-53
2023/07/08 10:06:05;;;;;;;3.47;3.17;;;22.50;99.90;;;;;;5095827;28;20179;-49
2023/07/08 10:08:42;;;;;;;3.73;3.43;;;22.60;99.90;;;;;;5096805;28;20686;-50
2023/07/08 10:11:17;;;;;;;4.57;3.63;;;22.60;99.90;;;;;;5096710;28;20148;-52
2023/07/08 10:13:47;;;;;;;4.17;3.83;;;22.70;99.90;;;;;;5095456;28;20159;-51
2023/07/08 10:16:31;;;;;;;4.47;3.57;;;22.70;99.90;;;;;;5094483;28;20176;-49
2023/07/08 10:18:58;;;;;;;6.57;3.87;;;22.70;99.90;;;;;;5061030;28;20278;-50
2023/07/08 10:21:49;;;;;;;4.07;3.77;;;22.80;99.90;;;;;;5094515;28;20280;-52
2023/07/08 10:24:52;;;;;;;4.93;4.43;;;22.80;99.90;;;;;;5094566;28;20164;-49
2023/07/08 10:27:54;;;;;;;6.27;5.67;;;22.90;99.90;;;;;;5095167;28;20194;-50
2023/07/08 10:30:29;;;;;;;14.07;13.27;;;22.90;99.90;;;;;;5080925;28;20176;-51
2023/07/08 10:32:55;;;;;;;12.30;11.60;;;23.00;99.90;;;;;;5095289;28;20529;-50
2023/07/08 10:35:36;;;;;;;6.50;6.00;;;23.00;99.90;;;;;;5095742;28;20254;-50
2023/07/08 10:38:20;;;;;;;4.70;4.40;;;23.00;99.90;;;;;;5093843;28;20179;-53
2023/07/08 10:41:00;;;;;;;5.10;4.63;;;23.10;99.90;;;;;;5093692;28;20206;-52
2023/07/08 10:43:31;;;;;;;7.40;6.90;;;23.10;99.90;;;;;;5093055;28;20207;-52
2023/07/08 10:46:18;;;;;;;42.13;39.97;;;23.20;99.90;;;;;;5095225;28;20279;-51
2023/07/08 10:48:55;;;;;;;14.77;14.00;;;23.30;99.90;;;;;;5093414;28;20483;-51
2023/07/08 10:51:48;;;;;;;15.07;14.23;;;23.30;99.90;;;;;;5094467;28;20681;-56
2023/07/08 10:55:05;;;;;;;12.77;12.03;;;23.40;99.90;;;;;;5085942;28;20473;-52
2023/07/08 10:57:54;;;;;;;13.87;12.93;;;23.50;99.90;;;;;;5060411;28;20183;-52
2023/07/08 11:00:43;;;;;;;13.67;12.77;;;23.50;99.90;;;;;;5095074;28;20236;-51
2023/07/08 11:03:28;;;;;;;16.23;15.23;;;23.60;99.90;;;;;;5096885;28;20199;-53
2023/07/08 11:06:20;;;;;;;15.50;14.63;;;23.60;99.90;;;;;;5095769;28;20172;-49
2023/07/08 11:08:56;;;;;;;13.23;12.47;;;23.70;99.90;;;;;;5077573;28;20173;-48
2023/07/08 11:11:51;;;;;;;12.20;11.30;;;23.70;99.90;;;;;;5095353;28;20189;-55
2023/07/08 11:14:26;;;;;;;11.70;11.00;;;23.70;99.90;;;;;;5079288;28;20178;-51
2023/07/08 11:17:18;;;;;;;11.37;10.77;;;23.80;99.90;;;;;;5095007;28;20163;-50
2023/07/08 11:20:10;;;;;;;14.03;13.23;;;23.90;99.90;;;;;;5095533;28;20207;-51
2023/07/08 11:22:45;;;;;;;12.53;11.73;;;23.90;99.90;;;;;;5080689;28;20607;-52
2023/07/08 11:25:18;;;;;;;10.23;9.23;;;24.00;99.90;;;;;;5077318;28;20175;-49
2023/07/08 11:27:49;;;;;;;10.30;9.70;;;24.10;99.90;;;;;;5076298;28;20256;-51
2023/07/08 11:30:24;;;;;;;15.80;14.90;;;24.10;99.90;;;;;;5092556;28;20184;-51
2023/07/08 11:33:03;;;;;;;17.30;16.33;;;24.20;99.90;;;;;;5092366;28;20235;-50
2023/07/08 11:35:42;;;;;;;14.80;14.00;;;24.20;99.90;;;;;;5094032;28;20194;-53
2023/07/08 11:38:15;;;;;;;14.93;14.02;;;24.20;99.90;;;;;;5094737;28;20172;-50
2023/07/08 11:40:55;;;;;;;10.10;9.32;;;24.30;99.90;;;;;;5080836;28;20295;-55
2023/07/08 11:43:26;;;;;;;16.33;9.17;;;24.40;99.90;;;;;;5098290;28;20171;-51
2023/07/08 11:45:57;;;;;;;11.73;11.03;;;24.50;99.90;;;;;;5096624;28;20175;-54
2023/07/08 11:48:31;;;;;;;11.00;10.40;;;24.60;99.90;;;;;;5081383;28;20174;-49
2023/07/08 11:50:57;;;;;;;11.45;9.68;;;24.70;99.90;;;;;;5099621;28;20171;-50
2023/07/08 11:53:47;;;;;;;12.35;11.40;;;24.70;99.90;;;;;;5100669;28;20490;-54
2023/07/08 11:56:23;;;;;;;6.85;6.38;;;24.90;99.90;;;;;;5099776;28;20175;-53
2023/07/08 11:58:51;;;;;;;6.70;6.20;;;25.00;99.90;;;;;;5099369;28;20182;-53
2023/07/08 12:01:28;;;;;;;12.45;4.05;;;25.10;99.90;;;;;;5099780;28;20296;-55
2023/07/08 12:04:17;;;;;;;4.00;3.70;;;25.20;99.90;;;;;;5100971;28;20225;-55
2023/07/08 12:06:49;;;;;;;5.05;4.10;;;25.30;99.90;;;;;;5098337;28;20695;-52
2023/07/08 12:09:25;;;;;;;3.50;3.30;;;25.50;99.90;;;;;;5097651;28;20183;-53
2023/07/08 12:12:00;;;;;;;4.53;3.97;;;25.60;99.90;;;;;;5082587;28;20164;-49
2023/07/08 12:14:28;;;;;;;4.07;3.78;;;25.70;99.90;;;;;;5081776;28;20303;-54
2023/07/08 12:16:54;;;;;;;6.25;5.75;;;25.90;99.90;;;;;;5100781;28;20164;-51
2023/07/08 12:19:22;;;;;;;6.57;6.10;;;25.90;99.90;;;;;;5098557;28;20175;-50
2023/07/08 12:21:49;;;;;;;12.23;11.40;;;26.00;99.90;;;;;;5098966;28;20199;-52
2023/07/08 12:24:15;;;;;;;13.68;12.68;;;26.20;99.90;;;;;;5099331;28;20548;-51
2023/07/08 12:26:43;;;;;;;11.88;11.18;;;26.30;99.90;;;;;;5098063;28;20175;-56
2023/07/08 12:29:13;;;;;;;12.25;11.32;;;26.40;99.90;;;;;;5098673;28;20168;-53
2023/07/08 12:31:40;;;;;;;12.00;10.98;;;26.50;99.90;;;;;;5097413;28;20164;-49
2023/07/08 12:34:14;;;;;;;9.68;9.07;;;26.70;99.90;;;;;;5095994;28;20172;-51
2023/07/08 12:36:39;;;;;;;9.98;8.20;;;26.80;99.90;;;;;;5095669;28;20233;-52
2023/07/08 12:39:11;;;;;;;9.07;6.97;;;26.90;99.90;;;;;;5095666;28;20180;-54
2023/07/08 12:41:37;;;;;;;9.50;8.90;;;27.00;99.90;;;;;;5095092;28;20211;-55
2023/07/08 12:44:14;;;;;;;13.13;12.07;;;27.10;99.90;;;;;;5096114;28;20168;-51
2023/07/08 12:46:41;;;;;;;13.55;12.75;;;27.20;99.90;;;;;;5096369;28;20178;-52
2023/07/08 12:49:08;;;;;;;13.57;12.77;;;27.30;99.90;;;;;;5095052;28;20175;-50
2023/07/08 12:51:34;;;;;;;11.45;10.85;;;27.50;99.90;;;;;;5097101;28;20629;-54
2023/07/08 12:54:00;;;;;;;11.80;11.10;;;27.60;99.90;;;;;;5097625;28;20246;-54
2023/07/08 12:56:26;;;;;;;11.02;10.32;;;27.70;99.90;;;;;;5097066;28;20201;-51
2023/07/08 12:58:57;;;;;;;11.65;10.95;;;27.80;99.90;;;;;;5096090;28;20203;-54